Address 0x7d4de8323146974d8247414ed5cfc33fc6c73860 2

 
Txn Hash
Block
From
To
Value [Txn Fee]
0x96773deba9f70fed8186abe178a7734781b3e51d19fae0446baad7add475c05596902662021-08-02 16:07:3818 hrs 38 mins ago0x7d4de8323146974d8247414ed5cfc33fc6c73860OUT Injective Protocol: INJ Token0 BNB0.000194535
0x6f4c3ecfafba13960cee8e268b892236c9801ea7ec39c28f6e2aea2e3dbd7ea496901482021-08-02 16:00:4818 hrs 45 mins ago0x7d4de8323146974d8247414ed5cfc33fc6c73860OUT BUSD-T Stablecoin0 BNB0.000180695
0x7931e55bafa95daa397e1e6444be9178017691769ea12b2c3e68ebe764ca966d96901052021-08-02 15:58:3518 hrs 47 mins ago0x7d4de8323146974d8247414ed5cfc33fc6c73860OUT Binance: BUSD Stablecoin0 BNB0.000105695
0x3b6b38a61056b474712c736c0e7cdc0f6bb39dc7907b5fa358298f5d49ce32dc96900462021-08-02 15:55:3718 hrs 50 mins ago0x7d4de8323146974d8247414ed5cfc33fc6c73860OUT Binance: BUSD Stablecoin0 BNB0.000255515
0x32f91d438b3bb0812137c2299c1bcc825ff76c9ba7399c3c9d5493ab8115853596893852021-08-02 15:20:4119 hrs 25 mins ago0x7d4de8323146974d8247414ed5cfc33fc6c73860OUT PancakeSwap: Router v20 BNB0.00104278
0x1ccf3902ab04fe79e1b274a123a6d3aa6f569372310847a4f81497969a3b2b7096893152021-08-02 15:17:1119 hrs 28 mins ago0x7d4de8323146974d8247414ed5cfc33fc6c73860OUT Pancake Bunny: Cake Maximizer - USDT-BUSD0 BNB0.00459444
0x29204d5d164d851f3a4a4189c3119449d78f79dd7f9910e742b51484b175f66588716252021-07-04 20:38:2729 days 14 hrs ago0x7d4de8323146974d8247414ed5cfc33fc6c73860OUT BUSD-T Stablecoin0 BNB0.000180755
0xfd22cc36a9903f80a39fc2cedc20dca28c30dafc36a4f852c4141f8ca022182875479802021-05-19 15:33:1975 days 19 hrs ago0x7d4de8323146974d8247414ed5cfc33fc6c73860OUT Injective Protocol: INJ Token0 BNB0.00023576
0xba48aefa945d51f5a1b3899ed87b7f60046248642d7d09946ddefadda26fe2c975476732021-05-19 15:17:5875 days 19 hrs ago0x7d4de8323146974d8247414ed5cfc33fc6c73860OUT PancakeSwap: Router v20 BNB0.001304175
0x390d3ddc0fe10fffbd64482e7b6c3105d7545d3affed1cfe74107927f9cd19c775475012021-05-19 15:09:2275 days 19 hrs ago0x7d4de8323146974d8247414ed5cfc33fc6c73860OUT USD Coin: USDC Token0 BNB0.00023576
0x6485e611985f109f37afa1f4f88da07c8d4cd42733bd3bf8551bea06d2030a8e75437112021-05-19 11:57:1075 days 22 hrs ago0x7d4de8323146974d8247414ed5cfc33fc6c73860OUT PancakeSwap: Router v20 BNB0.00121571
0xa85edd755926a775de7e144a82e35b1edd6e3db567e293c27fb75021cc48ec0075436972021-05-19 11:56:2875 days 22 hrs ago0x7d4de8323146974d8247414ed5cfc33fc6c73860OUT Ethereum: ETH Token0 BNB0.00022203
0xf0e006d5eb10fb4f7b17056c33b5967ed8b72d738ccd33f9f76e7b39dbaa3a0574974932021-05-17 20:40:2077 days 14 hrs ago0x7d4de8323146974d8247414ed5cfc33fc6c73860OUT Pancake Bunny: ETH Single Asset Vault0 BNB0.00455471
0x6abc0782f2991534e5df54fb0da17e00fa5866fde604c72d36bbe3b93b84e6af68407562021-04-24 9:48:24101 days 57 mins ago0x7d4de8323146974d8247414ed5cfc33fc6c73860OUT Pancake Bunny: Cake Maximizer - USDT-BUSD0 BNB0.002003865
0xd2ad9a22ad2e74fdbca8aeadeb5199721a73914df8d21b6aba7976c5e95c9b6468405052021-04-24 9:35:51101 days 1 hr ago0x7d4de8323146974d8247414ed5cfc33fc6c73860OUT 0x7efaef62fddcca950418312c6c91aef321375a000 BNB0.00022221
0xef9e2daab020d07997a3d3277a715cf4fb4ee0ce7e739170596d021dbdda419868394842021-04-24 8:44:48101 days 2 hrs ago0x7d4de8323146974d8247414ed5cfc33fc6c73860OUT PancakeSwap: Router v20 BNB0.000992135
0xd8dad31ced5357e54a10ce6a76d2eabebaefc4b5a37d9db2e0ad863b4eb4cd4068394742021-04-24 8:44:18101 days 2 hrs ago0x7d4de8323146974d8247414ed5cfc33fc6c73860OUT BUSD-T Stablecoin0 BNB0.00022203
0xe65e1922ec572ddb5b30303a7deef99ba061666aa6384e6c9a2dfd5c71e9807468394732021-04-24 8:44:15101 days 2 hrs ago0x7d4de8323146974d8247414ed5cfc33fc6c73860OUT Binance: BUSD Stablecoin0 BNB0.00022203
0x24a585875e33735aae78002df231c8302f761b3fceb2c759371207074b557aae68394472021-04-24 8:42:57101 days 2 hrs ago0x7d4de8323146974d8247414ed5cfc33fc6c73860OUT PancakeSwap: Router0 BNB0.000870835
0x859310c4601a35055aa0cd10d39e554dcfb9e55d6c754a5fc3e2a864e104a64268391612021-04-24 8:28:39101 days 2 hrs agoBinance: Hot Wallet 2 IN 0x7d4de8323146974d8247414ed5cfc33fc6c738600.19606561 BNB0.000126
0x8371b5210987bd5aebeb2f2e652770521bde15b84a1c5b57eae3008f24a6b89968261912021-04-23 21:39:35101 days 13 hrs ago0x7d4de8323146974d8247414ed5cfc33fc6c73860OUT 0x866fd0028eb7fc7eed02def330b05ab503e199d40 BNB0.00200056
0x8cee70f461747a36d41d2f2a667324d4ff307ccfbab578b0da23586da9fe909268261262021-04-23 21:36:20101 days 13 hrs ago0x7d4de8323146974d8247414ed5cfc33fc6c73860OUT PancakeSwap: Router0 BNB0.00058565
0x1ceb34e5c12ddb3fa943e0e8d8aff78d1c3223c3a5eef06cf003bd9219c033ce68250202021-04-23 20:39:49101 days 14 hrs ago0x7d4de8323146974d8247414ed5cfc33fc6c73860OUT Pancake Bunny: ETH Single Asset Vault0 BNB0.001578975
0x30c96b76f8971d8ed816a3f1919226728abdaa977b8d70f977dc8de05805350568249852021-04-23 20:38:04101 days 14 hrs ago0x7d4de8323146974d8247414ed5cfc33fc6c73860OUT Ethereum: ETH Token0 BNB0.00022203
0xa3ff5e979ee1036642a6ef8af369a075032ec6fedafba90fa03de4cc7350631f66305012021-04-17 0:43:53108 days 10 hrs ago0x7d4de8323146974d8247414ed5cfc33fc6c73860OUT 0x866fd0028eb7fc7eed02def330b05ab503e199d40 BNB0.00248862
[ Download CSV Export 
Latest 1 internal transaction
Parent Txn Hash Block From To Value
0x8cee70f461747a36d41d2f2a667324d4ff307ccfbab578b0da23586da9fe909268261262021-04-23 21:36:20101 days 13 hrs ago PancakeSwap: Router0x7d4de8323146974d8247414ed5cfc33fc6c738600.008253511036575915 BNB
[ Download CSV Export 
Loading

Contract Name:
0 BNB

Compiler Version
0

Optimization Enabled:
0 BNB

Other Settings:
-NA-
Block Transaction Gas Used Reward
Age Block Fee Address BC Fee Address Voting Power Jailed Incoming
Block Uncle Number Difficulty Gas Used Reward
Loading
Loading
Make sure to use the "Vote Down" button for any spammy posts, and the "Vote Up" for interesting conversations.